Time;durP1;ratioP1;P1;durP2;ratioP2;P2;SDS_P1;SDS_P2;PMS_P1;PMS_P2;Temp;Humidity;BMP_temperature;BMP_pressure;BME280_temperature;BME280_humidity;BME280_pressure;Samples;Min_cycle;Max_cycle;Signal;HPM_P1;HPM_P2
2022/08/27 00:02:19;;;;;;;;;4.00;4.00;;;;;21.70;51.72;101274.63;4976007;28;45464;-54
2022/08/27 00:04:45;;;;;;;;;4.00;4.00;;;;;21.74;51.69;101289.38;4975952;28;45341;-54
2022/08/27 00:07:11;;;;;;;;;5.00;4.25;;;;;21.71;51.89;101286.28;4975800;28;45393;-55
2022/08/27 00:09:37;;;;;;;;;6.00;3.00;;;;;21.60;51.99;101266.88;4975772;28;45468;-53
2022/08/27 00:12:04;;;;;;;;;3.75;3.50;;;;;21.70;52.66;101281.88;4975916;28;45414;-53
2022/08/27 00:14:29;;;;;;;;;3.40;3.40;;;;;21.65;52.63;101277.91;4975717;28;45390;-56
2022/08/27 00:16:55;;;;;;;;;5.00;5.00;;;;;21.67;51.98;101285.84;4975936;28;45315;-56
2022/08/27 00:19:21;;;;;;;;;4.00;4.00;;;;;21.61;52.58;101282.06;4975556;28;45976;-53
2022/08/27 00:21:47;;;;;;;;;5.00;4.50;;;;;21.62;52.91;101291.06;4975381;28;45377;-55
2022/08/27 00:24:12;;;;;;;;;4.50;4.25;;;;;21.59;52.66;101288.75;4975922;28;45212;-56
2022/08/27 00:26:39;;;;;;;;;2.75;2.75;;;;;21.55;52.36;101285.63;4975770;28;45308;-53
2022/08/27 00:29:04;;;;;;;;;4.00;4.00;;;;;21.56;52.73;101290.00;4975461;28;45343;-53
2022/08/27 00:31:30;;;;;;;;;4.75;4.75;;;;;21.53;52.59;101276.88;4975496;28;45331;-55
2022/08/27 00:33:55;;;;;;;;;4.25;4.00;;;;;21.49;52.25;101283.75;4975644;28;45229;-53
2022/08/27 00:36:21;;;;;;;;;3.75;3.00;;;;;21.50;52.91;101288.13;4975615;28;45329;-54
2022/08/27 00:38:48;;;;;;;;;4.00;3.25;;;;;21.46;52.55;101278.75;4975341;28;45938;-54
2022/08/27 00:41:14;;;;;;;;;7.60;3.40;;;;;21.50;53.04;101290.84;4975369;28;45268;-54
2022/08/27 00:43:47;;;;;;;;;4.00;3.25;;;;;21.48;52.86;101292.88;4975485;28;45387;-55
2022/08/27 00:46:36;;;;;;;;;3.00;2.50;;;;;21.46;52.27;101292.28;4974873;28;45301;-56
2022/08/27 00:49:08;;;;;;;;;3.00;2.00;;;;;21.46;52.65;101286.88;4973896;28;47008;-55
2022/08/27 00:51:35;;;;;;;;;5.00;3.00;;;;;21.46;52.96;101281.44;4975137;28;45379;-54
2022/08/27 00:54:01;;;;;;;;;3.40;2.40;;;;;21.46;53.23;101284.16;4975408;28;45325;-54
2022/08/27 00:56:32;;;;;;;;;2.00;2.00;;;;;21.43;52.67;101284.56;4975310;28;45302;-54
2022/08/27 00:58:57;;;;;;;;;3.50;3.25;;;;;21.40;52.78;101284.97;4975228;28;46007;-55
2022/08/27 01:01:32;;;;;;;;;7.00;3.00;;;;;21.38;53.21;101289.75;4975035;28;45394;-53
2022/08/27 01:04:01;;;;;;;;;2.25;2.25;;;;;21.39;53.28;101283.31;4977153;27;45356;-54
2022/08/27 01:06:31;;;;;;;;;4.75;4.75;;;;;21.30;53.22;101266.38;4975161;28;45272;-54
2022/08/27 01:09:12;;;;;;;;;3.00;3.00;;;;;21.42;53.08;101286.44;4975098;28;46021;-55
2022/08/27 01:11:38;;;;;;;;;3.60;3.60;;;;;21.38;52.69;101276.22;4974854;28;45212;-55
2022/08/27 01:14:04;;;;;;;;;5.25;4.00;;;;;21.43;53.11;101284.56;4975040;28;45306;-55
2022/08/27 01:16:36;;;;;;;;;4.00;4.00;;;;;21.45;52.99;101290.63;4975180;28;45463;-55
2022/08/27 01:19:06;;;;;;;;;4.00;4.00;;;;;21.43;52.53;101290.81;4974899;28;47215;-55
2022/08/27 01:21:45;;;;;;;;;5.60;3.00;;;;;21.40;52.91;101284.97;4974830;28;45448;-55
2022/08/27 01:24:29;;;;;;;;;3.00;3.00;;;;;21.41;52.90;101289.34;4976256;28;45398;-54
2022/08/27 01:26:58;;;;;;;;;3.75;3.75;;;;;21.28;52.86;101271.19;4974943;28;45399;-54
2022/08/27 01:29:23;;;;;;;;;3.50;3.50;;;;;21.40;53.03;101285.78;4974718;28;47170;-55
2022/08/27 01:31:49;;;;;;;;;4.00;2.25;;;;;21.41;53.21;101281.25;4974633;28;45223;-54
2022/08/27 01:34:14;;;;;;;;;2.75;2.50;;;;;21.42;52.80;101288.31;4974923;28;45362;-56
2022/08/27 01:36:40;;;;;;;;;6.00;4.00;;;;;21.42;52.22;101281.03;4973257;28;45335;-55
2022/08/27 01:39:05;;;;;;;;;3.75;2.00;;;;;21.40;52.45;101280.38;4974516;28;45461;-61
2022/08/27 01:41:31;;;;;;;;;5.00;3.00;;;;;21.41;53.10;101281.25;4974522;28;45186;-55
2022/08/27 01:43:56;;;;;;;;;3.00;3.00;;;;;21.40;53.59;101276.84;4974781;28;45274;-55
2022/08/27 01:46:24;;;;;;;;;3.25;3.25;;;;;21.33;53.72;101259.78;4974935;28;45242;-57
2022/08/27 01:48:50;;;;;;;;;5.75;2.75;;;;;21.44;53.65;101267.28;4974300;28;46124;-56
2022/08/27 01:51:15;;;;;;;;;2.00;2.00;;;;;21.42;53.59;101267.50;4974413;28;45379;-53
2022/08/27 01:53:41;;;;;;;;;4.25;4.25;;;;;21.39;53.56;101273.31;4974602;28;45456;-54
2022/08/27 01:56:07;;;;;;;;;4.25;3.00;;;;;21.38;53.51;101270.81;4974576;28;45572;-55
2022/08/27 01:58:32;;;;;;;;;3.50;2.75;;;;;21.36;53.68;101268.31;4974886;28;45288;-54
2022/08/27 02:01:04;;;;;;;;;2.25;2.25;;;;;21.31;53.52;101261.81;4977241;28;45165;-54
2022/08/27 02:03:30;;;;;;;;;2.60;1.80;;;;;21.30;53.12;101247.44;4977433;28;45441;-55
2022/08/27 02:05:55;;;;;;;;;4.00;2.25;;;;;21.29;53.87;101255.78;4977598;28;45467;-54
2022/08/27 02:08:21;;;;;;;;;2.50;2.25;;;;;21.32;53.92;101269.78;4977027;28;46000;-53
2022/08/27 02:10:48;;;;;;;;;3.50;3.50;;;;;21.35;53.66;101269.34;4977080;28;45440;-54
2022/08/27 02:13:14;;;;;;;;;4.00;3.00;;;;;21.37;54.02;101274.56;4977249;28;45220;-54
2022/08/27 02:15:41;;;;;;;;;4.75;3.00;;;;;21.38;53.56;101265.41;4977415;28;45174;-53
2022/08/27 02:18:07;;;;;;;;;2.25;2.25;;;;;21.36;53.43;101264.75;4977129;28;47239;-53
2022/08/27 02:20:33;;;;;;;;;4.60;3.00;;;;;21.30;53.84;101254.72;4977292;28;45321;-54
2022/08/27 02:22:59;;;;;;;;;6.20;3.20;;;;;21.38;54.00;101270.81;4977061;28;45453;-52
2022/08/27 02:25:27;;;;;;;;;2.50;2.50;;;;;21.37;53.74;101275.41;4977381;28;45340;-54
2022/08/27 02:27:53;;;;;;;;;5.25;4.25;;;;;21.35;53.97;101272.03;4976930;28;45453;-53
2022/08/27 02:30:21;;;;;;;;;5.00;3.00;;;;;21.33;53.67;101270.59;4977334;28;45325;-53
2022/08/27 02:32:48;;;;;;;;;2.25;2.00;;;;;21.25;53.83;101265.34;4977009;28;45396;-54
2022/08/27 02:35:15;;;;;;;;;3.25;3.25;;;;;21.25;53.73;101273.47;4977139;28;45569;-53
2022/08/27 02:37:42;;;;;;;;;3.00;3.00;;;;;21.20;54.04;101268.66;4976739;28;46619;-53
2022/08/27 02:40:10;;;;;;;;;2.00;2.00;;;;;21.15;53.74;101274.69;4977894;28;45257;-52
2022/08/27 02:42:35;;;;;;;;;6.00;3.00;;;;;21.12;54.50;101272.38;4977081;28;45297;-53
2022/08/27 02:45:02;;;;;;;;;4.00;2.25;;;;;21.10;54.19;101268.19;4977169;28;45353;-53
2022/08/27 02:47:28;;;;;;;;;6.00;3.75;;;;;21.09;54.25;101269.25;4976552;28;45372;-53
2022/08/27 02:49:53;;;;;;;;;4.00;2.00;;;;;21.04;54.64;101260.91;4976735;28;45367;-54
2022/08/27 02:52:19;;;;;;;;;4.50;4.00;;;;;21.01;54.73;101269.41;4976739;28;45716;-55
2022/08/27 02:54:45;;;;;;;;;3.75;3.75;;;;;20.98;55.00;101259.81;4976942;28;45273;-54
2022/08/27 02:57:11;;;;;;;;;1.75;1.75;;;;;20.92;54.97;101255.25;4976330;28;46232;-55
2022/08/27 02:59:36;;;;;;;;;4.00;4.00;;;;;20.92;54.38;101249.84;4991770;28;45299;-55
2022/08/27 03:02:02;;;;;;;;;3.00;3.00;;;;;20.88;54.39;101251.28;4976830;28;45425;-53
2022/08/27 03:04:28;;;;;;;;;3.00;3.00;;;;;20.90;54.65;101254.63;4976784;28;45282;-54
2022/08/27 03:06:54;;;;;;;;;4.00;4.00;;;;;20.86;54.33;101254.19;4976648;28;45275;-54
2022/08/27 03:09:20;;;;;;;;;4.00;3.00;;;;;20.83;54.79;101249.19;4977526;27;45658;-53
2022/08/27 03:11:45;;;;;;;;;2.00;2.00;;;;;20.83;55.28;101259.16;4976568;28;45354;-53
2022/08/27 03:14:11;;;;;;;;;4.00;3.25;;;;;20.82;55.29;101257.50;4976954;28;45220;-54
2022/08/27 03:16:38;;;;;;;;;4.75;3.25;;;;;20.80;55.24;101262.25;4976207;28;46392;-53
2022/08/27 03:19:06;;;;;;;;;6.60;3.00;;;;;20.76;54.80;101248.31;4976363;28;45370;-55
2022/08/27 03:21:33;;;;;;;;;4.00;3.00;;;;;20.74;55.24;101252.28;4976644;28;45423;-53
2022/08/27 03:24:00;;;;;;;;;2.00;2.00;;;;;20.71;55.52;101247.25;4976433;28;45480;-55
2022/08/27 03:26:27;;;;;;;;;2.00;2.00;;;;;20.68;55.26;101251.19;4976355;28;46343;-55
2022/08/27 03:28:53;;;;;;;;;4.00;2.75;;;;;20.64;55.87;101256.16;4976176;28;45284;-53
2022/08/27 03:31:25;;;;;;;;;3.00;3.00;;;;;20.51;55.78;101237.16;4976230;28;45362;-54
2022/08/27 03:33:53;;;;;;;;;2.25;2.25;;;;;20.58;55.90;101250.72;4976581;28;45391;-54
2022/08/27 03:36:19;;;;;;;;;3.25;3.25;;;;;20.57;55.62;101259.88;4975983;28;45343;-55
2022/08/27 03:38:44;;;;;;;;;2.25;2.25;;;;;20.54;55.96;101249.47;4976286;28;45250;-56
2022/08/27 03:41:10;;;;;;;;;7.00;3.75;;;;;20.50;55.92;101251.72;4976217;28;45478;-55
2022/08/27 03:43:35;;;;;;;;;3.75;2.00;;;;;20.49;55.99;101247.34;4976528;28;45376;-55
2022/08/27 03:46:01;;;;;;;;;4.00;3.00;;;;;20.42;55.34;101239.16;4976380;28;45985;-55
2022/08/27 03:48:27;;;;;;;;;2.00;2.00;;;;;20.42;55.02;101244.56;4975865;28;45369;-55
2022/08/27 03:50:53;;;;;;;;;3.50;2.00;;;;;20.38;56.14;101248.72;4976015;28;45240;-54
2022/08/27 03:53:22;;;;;;;;;5.75;3.25;;;;;20.36;56.33;101239.16;4976075;28;45533;-54
2022/08/27 03:55:47;;;;;;;;;3.00;3.00;;;;;20.28;55.93;101229.34;4975862;28;46249;-54
2022/08/27 03:58:14;;;;;;;;;3.00;3.00;;;;;20.31;55.99;101244.28;4975743;28;45898;-54
2022/08/27 04:00:40;;;;;;;;;2.00;2.00;;;;;20.27;56.58;101240.31;4976018;28;45366;-53
2022/08/27 04:03:06;;;;;;;;;5.50;2.75;;;;;20.15;56.31;101219.28;4976109;28;45420;-53
2022/08/27 04:05:33;;;;;;;;;5.75;3.00;;;;;20.24;56.79;101238.03;4975734;28;47033;-53
2022/08/27 04:07:59;;;;;;;;;3.25;3.25;;;;;20.27;56.65;101237.63;4975676;28;45370;-53
2022/08/27 04:10:26;;;;;;;;;6.00;4.50;;;;;20.26;56.33;101241.34;4976001;28;45386;-54
2022/08/27 04:12:52;;;;;;;;;3.00;2.75;;;;;20.18;56.39;101236.94;4975968;28;45227;-55
2022/08/27 04:15:17;;;;;;;;;3.75;2.00;;;;;20.22;56.92;101240.09;4975515;28;46237;-54
2022/08/27 04:17:42;;;;;;;;;4.00;2.75;;;;;20.21;56.56;101241.94;4975624;28;45162;-54
2022/08/27 04:20:09;;;;;;;;;3.00;2.25;;;;;20.20;56.33;101234.88;4975876;28;45739;-54
2022/08/27 04:22:35;;;;;;;;;5.00;3.25;;;;;20.17;56.93;101232.56;4974973;28;45253;-53
2022/08/27 04:25:01;;;;;;;;;3.00;3.00;;;;;20.14;56.74;101232.97;4975426;28;46410;-53
2022/08/27 04:27:27;;;;;;;;;4.00;3.00;;;;;20.15;56.89;101230.09;4974158;28;45972;-55
2022/08/27 04:29:54;;;;;;;;;6.25;4.00;;;;;20.15;56.72;101230.09;4975681;28;45262;-55
2022/08/27 04:32:20;;;;;;;;;5.00;4.00;;;;;20.02;56.63;101204.88;4974632;28;45612;-51
2022/08/27 04:34:45;;;;;;;;;2.75;2.75;;;;;20.14;57.11;101231.13;4975396;28;46325;-53
2022/08/27 04:37:11;;;;;;;;;5.00;3.25;;;;;20.13;56.74;101228.59;4975386;28;45439;-54
2022/08/27 04:39:36;;;;;;;;;3.00;3.00;;;;;20.08;56.70;101223.78;4975353;28;45380;-53
2022/08/27 04:42:02;;;;;;;;;5.25;4.00;;;;;20.10;57.13;101224.44;4977290;28;45562;-53
2022/08/27 04:44:31;;;;;;;;;3.00;2.00;;;;;20.11;56.87;101233.38;4975475;28;46097;-52
2022/08/27 04:46:58;;;;;;;;;5.00;5.00;;;;;20.12;57.20;101237.75;4975261;28;45606;-52
2022/08/27 04:49:25;;;;;;;;;3.25;3.25;;;;;20.13;56.82;101236.69;4975430;28;45418;-52
2022/08/27 04:51:51;;;;;;;;;4.00;3.25;;;;;20.13;56.81;101234.00;4975594;28;45379;-52
2022/08/27 04:54:16;;;;;;;;;5.50;4.50;;;;;20.05;56.47;101217.94;4975015;28;46264;-52
2022/08/27 04:56:42;;;;;;;;;3.50;3.50;;;;;20.14;56.62;101235.66;4975211;28;45261;-52
2022/08/27 04:59:08;;;;;;;;;3.00;3.00;;;;;20.15;56.45;101237.34;4975206;28;45330;-54
2022/08/27 05:01:36;;;;;;;;;3.75;3.00;;;;;20.02;56.76;101218.38;4975577;28;45453;-51
2022/08/27 05:04:02;;;;;;;;;6.25;5.00;;;;;20.14;56.83;101241.94;4974995;28;45370;-55
2022/08/27 05:06:27;;;;;;;;;6.00;4.00;;;;;20.15;56.87;101235.50;4974838;28;45411;-52
2022/08/27 05:08:53;;;;;;;;;4.25;4.25;;;;;20.17;56.18;101235.28;4975051;28;45420;-53
2022/08/27 05:11:21;;;;;;;;;3.50;3.00;;;;;20.14;56.26;101239.22;4975196;28;45292;-53
2022/08/27 05:13:47;;;;;;;;;4.75;4.00;;;;;20.10;56.39;101237.94;4974772;28;46208;-54
2022/08/27 05:16:15;;;;;;;;;6.25;5.00;;;;;20.08;56.07;101231.91;4974831;28;45424;-55
2022/08/27 05:18:41;;;;;;;;;4.25;4.25;;;;;20.02;56.63;101238.09;4974867;28;45453;-54
2022/08/27 05:21:07;;;;;;;;;4.50;4.50;;;;;19.85;56.37;101215.13;4975163;28;45390;-54
2022/08/27 05:23:33;;;;;;;;;6.50;4.75;;;;;19.84;57.06;101229.63;4973268;28;47169;-54
2022/08/27 05:25:59;;;;;;;;;6.00;4.00;;;;;19.90;56.70;101245.91;4976367;27;45393;-55
2022/08/27 05:28:26;;;;;;;;;4.75;4.00;;;;;19.89;57.48;101252.34;4974980;28;45291;-56
2022/08/27 05:31:01;;;;;;;;;3.50;3.50;;;;;19.90;57.32;101264.78;4974968;28;45462;-56
2022/08/27 05:33:27;;;;;;;;;3.25;3.25;;;;;19.90;56.90;101275.59;4974428;28;47088;-54
2022/08/27 05:35:55;;;;;;;;;5.75;5.75;;;;;19.88;56.95;101264.16;4974781;28;45395;-53
2022/08/27 05:38:23;;;;;;;;;3.25;3.25;;;;;19.78;56.42;101250.16;4974451;28;45323;-55
2022/08/27 05:40:49;;;;;;;;;3.50;3.50;;;;;19.87;57.12;101275.97;4974823;28;45436;-53
2022/08/27 05:43:16;;;;;;;;;6.00;5.25;;;;;19.73;56.72;101246.38;4974447;28;47178;-54
2022/08/27 05:45:47;;;;;;;;;4.25;3.00;;;;;19.87;57.32;101267.88;4974474;28;45303;-54
2022/08/27 05:48:16;;;;;;;;;4.00;4.00;;;;;19.91;56.90;101262.94;4974727;28;45348;-54
2022/08/27 05:50:43;;;;;;;;;8.25;5.25;;;;;19.95;57.05;101264.22;4974759;28;45212;-55
2022/08/27 05:53:11;;;;;;;;;7.25;6.00;;;;;20.04;56.68;101267.59;4974372;28;46449;-54
2022/08/27 05:55:42;;;;;;;;;5.00;4.25;;;;;20.14;56.56;101258.13;4974255;28;45515;-54
2022/08/27 06:01:03;;;;;;;;;4.00;4.00;;;;;20.23;56.12;101255.28;4974355;28;45815;-54
2022/08/27 06:01:05;;;;;;;;;5.50;4.00;;;;;19.96;56.28;101203.75;4974551;28;45555;-55
2022/08/27 06:03:36;;;;;;;;;6.50;2.00;;;;;20.36;55.74;101258.91;4974132;28;46256;-54
2022/08/27 06:06:04;;;;;;;;;6.50;4.75;;;;;20.40;55.68;101260.16;4974315;28;45371;-54
2022/08/27 06:08:30;;;;;;;;;5.00;3.50;;;;;20.41;55.88;101259.13;4974272;27;45309;-55
2022/08/27 06:10:56;;;;;;;;;4.25;4.25;;;;;20.38;55.93;101253.28;4974286;28;45395;-55
2022/08/27 06:13:22;;;;;;;;;8.00;6.00;;;;;20.36;55.74;101258.06;4974076;28;46513;-55
2022/08/27 06:15:48;;;;;;;;;6.25;4.50;;;;;20.34;55.51;101262.81;4974138;28;45451;-55
2022/08/27 06:18:14;;;;;;;;;4.00;4.00;;;;;20.33;56.48;101261.97;4974052;27;45343;-54
2022/08/27 06:20:39;;;;;;;;;5.75;4.25;;;;;20.33;55.70;101267.38;4974348;28;45325;-52
2022/08/27 06:23:05;;;;;;;;;7.75;5.00;;;;;20.29;55.53;101266.13;4973976;28;45204;-54
2022/08/27 06:25:31;;;;;;;;;6.00;4.75;;;;;20.28;55.79;101266.31;4974105;28;45354;-53
2022/08/27 06:27:57;;;;;;;;;5.25;5.25;;;;;20.27;56.20;101270.03;4974095;28;45446;-54
2022/08/27 06:30:23;;;;;;;;;3.00;1.25;;;;;20.29;56.00;101270.69;4974146;28;45316;-54
2022/08/27 06:32:50;;;;;;;;;4.25;4.25;;;;;20.32;55.71;101270.31;4973570;28;47054;-52
2022/08/27 06:35:16;;;;;;;;;4.25;4.25;;;;;20.24;55.83;101262.34;4973705;28;45395;-56
2022/08/27 06:37:42;;;;;;;;;4.75;4.75;;;;;20.36;56.14;101271.56;4973635;28;45411;-54
2022/08/27 06:40:09;;;;;;;;;10.00;5.25;;;;;20.37;55.83;101278.63;4973739;28;45441;-54
2022/08/27 06:42:35;;;;;;;;;7.75;3.75;;;;;20.39;55.60;101276.56;4973583;28;46939;-54
2022/08/27 06:45:00;;;;;;;;;3.75;3.75;;;;;20.40;55.41;101275.56;4975024;28;45243;-54
2022/08/27 06:47:26;;;;;;;;;7.25;6.00;;;;;20.45;55.51;101278.50;4992126;28;45228;-53
2022/08/27 06:49:51;;;;;;;;;6.75;6.00;;;;;20.47;55.70;101275.56;4977183;28;45461;-55
2022/08/27 06:52:17;;;;;;;;;6.75;6.00;;;;;20.50;55.06;101276.03;4976619;28;46311;-55
2022/08/27 06:54:43;;;;;;;;;7.25;4.25;;;;;20.55;55.41;101280.84;4976602;28;45239;-52
2022/08/27 06:57:09;;;;;;;;;9.00;5.25;;;;;20.64;55.38;101291.28;4976819;28;45403;-55
2022/08/27 06:59:34;;;;;;;;;7.00;5.50;;;;;20.70;55.34;101288.84;4976665;28;45304;-55
2022/08/27 07:02:00;;;;;;;;;5.75;5.25;;;;;20.63;54.96;101268.00;4976697;28;46469;-54
2022/08/27 07:04:25;;;;;;;;;5.25;5.25;;;;;20.86;54.86;101297.47;4976403;28;45335;-54
2022/08/27 07:06:51;;;;;;;;;6.00;5.25;;;;;21.05;54.14;101297.75;4976492;27;45745;-54
2022/08/27 07:09:19;;;;;;;;;8.00;6.25;;;;;21.30;53.83;101298.88;4976869;28;45306;-54
2022/08/27 07:11:45;;;;;;;;;6.00;6.00;;;;;22.17;52.46;101291.72;4976139;28;47120;-53
2022/08/27 07:14:10;;;;;;;;;7.00;6.25;;;;;23.49;49.63;101298.59;4976558;28;45363;-54
2022/08/27 07:16:36;;;;;;;;;11.25;6.00;;;;;24.51;47.21;101295.69;4976440;28;45463;-55
2022/08/27 07:19:04;;;;;;;;;5.75;5.75;;;;;25.34;45.32;101292.41;4976582;28;45439;-53
2022/08/27 07:21:31;;;;;;;;;8.20;6.20;;;;;26.09;43.26;101289.97;4976501;28;46016;-56
2022/08/27 07:24:03;;;;;;;;;6.60;5.20;;;;;26.74;41.91;101286.28;4976295;27;45386;-55
2022/08/27 07:26:29;;;;;;;;;4.00;4.00;;;;;27.44;41.35;101285.22;4976572;28;45473;-55
2022/08/27 07:28:54;;;;;;;;;4.75;4.00;;;;;28.00;40.04;101277.16;4976453;28;45449;-55
2022/08/27 07:31:22;;;;;;;;;8.75;6.25;;;;;28.60;38.92;101277.22;4976207;28;45438;-55
2022/08/27 07:33:49;;;;;;;;;5.80;4.00;;;;;29.27;38.94;101276.13;4976253;28;45344;-55
2022/08/27 07:36:14;;;;;;;;;6.00;5.00;;;;;29.76;36.35;101276.06;4976333;28;45227;-55
2022/08/27 07:38:40;;;;;;;;;6.75;4.25;;;;;30.15;36.25;101283.22;4976299;28;45395;-56
2022/08/27 07:41:09;;;;;;;;;6.60;5.20;;;;;30.47;36.88;101272.16;4975834;28;45426;-55
2022/08/27 07:46:20;;;;;;;;;5.20;5.00;;;;;30.99;34.87;101288.59;4976085;28;45290;-55
2022/08/27 07:48:45;;;;;;;;;7.00;5.20;;;;;31.17;34.78;101289.19;4976458;28;45328;-55
2022/08/27 07:51:16;;;;;;;;;7.75;4.75;;;;;31.37;34.54;101288.47;4975866;28;46068;-55
2022/08/27 07:53:43;;;;;;;;;4.00;4.00;;;;;31.82;33.25;101292.34;4976028;28;45391;-53
2022/08/27 07:56:09;;;;;;;;;3.40;2.80;;;;;32.31;32.25;101292.56;4975912;28;45401;-52
2022/08/27 07:58:35;;;;;;;;;4.00;4.00;;;;;32.79;32.18;101295.75;4976128;28;45475;-56
2022/08/27 08:01:01;;;;;;;;;5.80;5.00;;;;;33.07;31.56;101291.50;4975706;28;46285;-52
2022/08/27 08:03:27;;;;;;;;;7.50;4.25;;;;;33.30;31.85;101291.94;4975738;28;45374;-54
2022/08/27 08:05:53;;;;;;;;;4.00;4.00;;;;;33.48;31.60;101297.59;4975985;28;45311;-53
2022/08/27 08:08:20;;;;;;;;;3.60;3.60;;;;;33.53;29.77;101291.22;4976138;28;45260;-54
2022/08/27 08:10:49;;;;;;;;;3.00;3.00;;;;;33.35;31.85;101295.47;4975626;28;46070;-54
2022/08/27 08:13:17;;;;;;;;;3.60;3.20;;;;;33.05;31.83;101290.16;4975563;28;45343;-54
2022/08/27 08:15:45;;;;;;;;;4.80;4.80;;;;;32.73;31.89;101292.19;4975992;28;45266;-55
2022/08/27 08:18:10;;;;;;;;;6.00;4.40;;;;;32.64;31.26;101304.06;4975916;28;45463;-55
2022/08/27 08:20:36;;;;;;;;;9.00;3.75;;;;;32.69;31.87;101293.03;4975681;28;45312;-54
2022/08/27 08:23:01;;;;;;;;;5.00;5.00;;;;;32.76;30.89;101305.41;4975587;28;45476;-55
2022/08/27 08:25:27;;;;;;;;;11.75;4.00;;;;;33.13;30.74;101295.06;4975512;28;45478;-54
2022/08/27 08:27:52;;;;;;;;;7.00;5.00;;;;;33.45;30.53;101300.94;4975815;27;45292;-55
2022/08/27 08:30:18;;;;;;;;;7.25;5.25;;;;;33.91;29.40;101300.56;4976856;28;45354;-54
2022/08/27 08:32:43;;;;;;;;;4.25;4.25;;;;;34.20;30.06;101305.28;4975518;28;45309;-54
2022/08/27 08:35:11;;;;;;;;;5.75;4.00;;;;;34.56;29.62;101299.41;4975568;28;45493;-54
2022/08/27 08:37:36;;;;;;;;;5.00;3.60;;;;;34.97;28.92;101296.94;4975568;28;45337;-54
2022/08/27 08:40:03;;;;;;;;;5.50;4.50;;;;;35.40;28.60;101283.09;4977299;27;46245;-54
2022/08/27 08:42:35;;;;;;;;;7.60;6.20;;;;;35.79;28.87;101287.44;4975226;27;45340;-53
2022/08/27 08:45:04;;;;;;;;;2.00;2.00;;;;;37.03;27.05;101290.31;4975318;28;45475;-54
2022/08/27 08:47:41;;;;;;;;;5.00;5.00;;;;;38.76;25.22;101283.03;4975597;28;45317;-55
2022/08/27 08:50:13;;;;;;;;;6.80;5.40;;;;;40.62;21.89;101282.97;4975097;28;46032;-53
2022/08/27 08:53:11;;;;;;;;;5.40;3.20;;;;;41.89;21.30;101282.63;4975173;28;45292;-53
2022/08/27 08:55:55;;;;;;;;;4.80;3.20;;;;;42.57;19.22;101282.06;4986317;28;45319;-53
2022/08/27 08:58:20;;;;;;;;;4.80;3.60;;;;;43.09;20.03;101287.72;4975208;28;45453;-54
2022/08/27 09:01:00;;;;;;;;;3.00;3.00;;;;;43.64;20.38;101281.69;4974919;28;46551;-52
2022/08/27 09:03:27;;;;;;;;;5.80;3.00;;;;;44.13;16.97;101287.00;4974980;28;45406;-53
2022/08/27 09:06:06;;;;;;;;;1.80;1.80;;;;;44.67;17.39;101289.13;4975141;28;45446;-56
2022/08/27 09:08:37;;;;;;;;;3.40;3.40;;;;;45.29;18.95;101287.28;4974512;28;45517;-53
2022/08/27 09:11:15;;;;;;;;;1.00;1.00;;;;;45.46;16.82;101294.47;4989702;28;46269;-54
2022/08/27 09:13:48;;;;;;;;;5.40;2.60;;;;;45.04;17.67;101293.19;4974930;28;45236;-57
2022/08/27 09:16:14;;;;;;;;;3.20;2.00;;;;;44.54;18.48;101294.84;4975309;28;45401;-56
2022/08/27 09:18:41;;;;;;;;;5.25;2.75;;;;;43.76;17.15;101304.84;4975265;28;45253;-55
2022/08/27 09:21:40;;;;;;;;;4.20;4.00;;;;;43.59;17.97;101293.97;4974873;28;46166;-55
2022/08/27 09:24:06;;;;;;;;;3.20;2.40;;;;;43.72;17.43;101292.72;4979147;28;45357;-53
2022/08/27 09:26:35;;;;;;;;;2.00;2.00;;;;;44.60;17.91;101292.56;4974859;28;45437;-55
2022/08/27 09:29:20;;;;;;;;;3.00;3.00;;;;;45.41;15.61;101289.13;4975124;28;45386;-54
2022/08/27 09:31:52;;;;;;;;;3.20;3.20;;;;;46.10;15.56;101292.81;4974639;28;45397;-54
2022/08/27 09:34:18;;;;;;;;;2.40;2.20;;;;;46.67;14.28;101288.13;4974566;28;45505;-57
2022/08/27 09:36:54;;;;;;;;;2.00;2.00;;;;;47.02;14.58;101289.84;4974542;28;45415;-54
2022/08/27 09:39:31;;;;;;;;;1.80;1.80;;;;;47.29;15.13;101295.41;4973582;28;45479;-54
2022/08/27 09:41:57;;;;;;;;;3.80;2.20;;;;;46.99;15.97;101293.44;4974463;28;46038;-54
2022/08/27 09:44:23;;;;;;;;;4.20;2.80;;;;;47.57;13.40;101295.72;4974422;27;45339;-55
2022/08/27 09:46:53;;;;;;;;;3.75;2.00;;;;;48.43;13.85;101302.19;4974734;28;45464;-54
2022/08/27 09:49:18;;;;;;;;;4.60;3.80;;;;;49.49;12.39;101303.94;4974828;28;45389;-54
2022/08/27 09:51:46;;;;;;;;;2.00;1.75;;;;;49.97;12.69;101297.94;4974667;28;46988;-56
2022/08/27 09:54:25;;;;;;;;;3.00;3.00;;;;;50.34;12.34;101293.91;4974312;28;45503;-55
2022/08/27 09:56:50;;;;;;;;;3.80;2.40;;;;;50.75;11.26;101297.06;4974245;28;45474;-54
2022/08/27 09:59:22;;;;;;;;;3.00;3.00;;;;;51.07;11.51;101296.13;4974663;28;45381;-55
2022/08/27 10:02:01;;;;;;;;;0.60;0.60;;;;;50.79;12.67;101302.72;4974224;28;46891;-55
2022/08/27 10:04:38;;;;;;;;;3.20;2.60;;;;;50.84;11.75;101290.97;4974191;28;45338;-56
2022/08/27 10:07:27;;;;;;;;;3.20;3.20;;;;;51.15;11.99;101292.84;4974260;27;45323;-56
2022/08/27 10:10:17;;;;;;;;;3.40;1.60;;;;;51.22;11.77;101291.25;4974656;28;45227;-55
2022/08/27 10:12:57;;;;;;;;;4.80;3.80;;;;;51.32;11.20;101285.50;4973804;28;46425;-56
2022/08/27 10:15:28;;;;;;;;;2.60;2.00;;;;;51.29;10.93;101300.53;4974272;28;45216;-56
2022/08/27 10:18:09;;;;;;;;;2.00;2.00;;;;;50.81;12.54;101291.78;4974128;28;45431;-54
2022/08/27 10:20:57;;;;;;;;;2.80;2.40;;;;;49.11;12.91;101291.25;4976444;28;45376;-54
2022/08/27 10:23:52;;;;;;;;;3.20;2.60;;;;;49.00;12.66;101291.22;4976963;28;46299;-60
2022/08/27 10:26:28;;;;;;;;;2.80;2.80;;;;;48.63;13.34;101292.25;4976979;28;45588;-55
2022/08/27 10:29:12;;;;;;;;;2.60;2.60;;;;;48.36;13.42;101290.81;4977020;28;45414;-55
2022/08/27 10:32:07;;;;;;;;;2.40;2.00;;;;;48.46;13.02;101290.09;4977334;28;45351;-55
2022/08/27 10:34:50;;;;;;;;;7.00;3.40;;;;;49.06;12.03;101295.28;4976920;28;45297;-54
2022/08/27 10:37:32;;;;;;;;;1.60;1.60;;;;;49.47;12.50;101292.22;4976532;28;45635;-54
2022/08/27 10:40:26;;;;;;;;;4.00;2.80;;;;;49.11;12.73;101286.44;4976817;28;45193;-55
2022/08/27 10:43:20;;;;;;;;;3.00;3.00;;;;;48.80;12.85;101284.25;4977053;28;45402;-55
2022/08/27 10:45:54;;;;;;;;;3.00;3.00;;;;;48.71;12.76;101288.22;4991187;28;63155;-54
2022/08/27 10:48:43;;;;;;;;;3.20;3.20;;;;;48.71;12.16;101285.41;4976732;28;45413;-54
2022/08/27 10:51:31;;;;;;;;;3.40;2.40;;;;;49.06;12.06;101283.19;4976830;28;45318;-55
2022/08/27 10:54:19;;;;;;;;;3.20;2.60;;;;;49.65;11.31;101270.44;4976822;28;45298;-55
2022/08/27 10:56:50;;;;;;;;;3.60;2.80;;;;;49.33;11.61;101280.84;4976364;28;45520;-55
2022/08/27 10:59:24;;;;;;;;;5.40;4.20;;;;;49.06;12.29;101264.22;4976399;27;45418;-56
2022/08/27 11:02:10;;;;;;;;;4.60;4.00;;;;;49.48;11.52;101262.75;4976729;28;45433;-56
2022/08/27 11:04:47;;;;;;;;;4.00;3.00;;;;;49.99;11.22;101250.28;4976829;28;45562;-54
2022/08/27 11:07:20;;;;;;;;;4.80;3.20;;;;;50.41;11.15;101259.94;4976451;28;46401;-55
2022/08/27 11:09:47;;;;;;;;;3.00;3.00;;;;;50.46;11.42;101255.88;4976629;28;45517;-55
2022/08/27 11:12:20;;;;;;;;;5.40;4.60;;;;;49.70;11.98;101263.56;4976571;28;45353;-55
2022/08/27 11:14:53;;;;;;;;;3.20;3.20;;;;;48.96;11.70;101259.31;4976268;28;45276;-55
2022/08/27 11:17:44;;;;;;;;;4.80;4.80;;;;;48.40;12.56;101257.81;4975919;28;46254;-56
2022/08/27 11:20:15;;;;;;;;;2.60;2.40;;;;;47.80;11.82;101249.66;4976011;28;45385;-55
2022/08/27 11:22:50;;;;;;;;;4.40;3.00;;;;;47.76;12.30;101243.19;4976138;28;45284;-56
2022/08/27 11:25:29;;;;;;;;;6.60;4.60;;;;;47.47;12.56;101237.25;4976377;28;45318;-54
2022/08/27 11:27:58;;;;;;;;;3.80;3.20;;;;;47.03;12.15;101237.97;4975847;28;46333;-55
2022/08/27 11:30:26;;;;;;;;;2.40;1.60;;;;;46.66;12.52;101252.75;4975783;28;45166;-55
2022/08/27 11:33:09;;;;;;;;;3.80;3.80;;;;;46.73;12.31;101235.94;4976095;28;45438;-55
2022/08/27 11:35:52;;;;;;;;;2.00;2.00;;;;;46.44;12.35;101225.44;4976212;28;45403;-55
2022/08/27 11:38:30;;;;;;;;;2.40;2.20;;;;;45.75;13.01;101229.16;4975606;28;46380;-55